Time;durP1;ratioP1;P1;durP2;ratioP2;P2;SDS_P1;SDS_P2;PMS_P1;PMS_P2;Temp;Humidity;BMP_temperature;BMP_pressure;BME280_temperature;BME280_humidity;BME280_pressure;Samples;Min_cycle;Max_cycle;Signal;HPM_P1;HPM_P2
2023/09/22 00:00:55;;;;;;;0.13;0.13;;;18.90;99.90;;;;;;7398462;19;20221;-81
2023/09/22 00:03:21;;;;;;;0.00;0.00;;;18.80;99.90;;;;;;7398398;19;20135;-81
2023/09/22 00:05:47;;;;;;;0.10;0.10;;;18.70;99.90;;;;;;7396293;19;20169;-81
2023/09/22 00:08:12;;;;;;;0.20;0.20;;;18.70;99.90;;;;;;7398477;19;20135;-80
2023/09/22 00:10:38;;;;;;;0.20;0.20;;;18.40;99.90;;;;;;7398368;19;20130;-81
2023/09/22 00:13:05;;;;;;;0.10;0.10;;;18.40;99.90;;;;;;7398459;19;20166;-80
2023/09/22 00:15:34;;;;;;;0.10;0.10;;;18.50;99.90;;;;;;7396444;19;20146;-78
2023/09/22 00:18:01;;;;;;;0.10;0.10;;;18.40;99.90;;;;;;7400735;19;20255;-79
2023/09/22 00:20:27;;;;;;;0.13;0.13;;;18.40;99.90;;;;;;7399055;19;20146;-80
2023/09/22 00:22:53;;;;;;;0.13;0.13;;;18.40;99.90;;;;;;7400021;19;20147;-81
2023/09/22 00:25:19;;;;;;;0.15;0.15;;;18.20;99.90;;;;;;7395572;19;20146;-80
2023/09/22 00:27:44;;;;;;;0.10;0.10;;;18.30;99.90;;;;;;7398686;19;20150;-81
2023/09/22 00:30:10;;;;;;;0.10;0.10;;;18.40;99.90;;;;;;7396371;19;20590;-79
2023/09/22 00:32:38;;;;;;;0.10;0.10;;;18.50;99.90;;;;;;7398491;19;20182;-80
2023/09/22 00:35:05;;;;;;;0.20;0.20;;;18.50;99.90;;;;;;7396991;19;20183;-81
2023/09/22 00:37:33;;;;;;;0.10;0.10;;;18.50;99.90;;;;;;7400824;19;20174;-82
2023/09/22 00:39:59;;;;;;;0.00;0.00;;;18.50;99.90;;;;;;7397201;19;20126;-83
2023/09/22 00:42:25;;;;;;;0.20;0.20;;;18.20;99.90;;;;;;7399035;19;20453;-84
2023/09/22 00:44:50;;;;;;;0.10;0.10;;;18.30;99.90;;;;;;7399102;19;20135;-84
2023/09/22 00:47:17;;;;;;;0.10;0.10;;;18.30;99.90;;;;;;7400290;19;20202;-83
2023/09/22 00:49:45;;;;;;;0.10;0.10;;;18.30;99.90;;;;;;7399389;19;20563;-82
2023/09/22 00:52:13;;;;;;;0.10;0.10;;;18.30;99.90;;;;;;7398010;19;20138;-83
2023/09/22 00:54:39;;;;;;;0.20;0.20;;;18.30;99.90;;;;;;7396872;19;20576;-83
2023/09/22 00:57:06;;;;;;;0.10;0.10;;;18.30;99.90;;;;;;7394758;19;20169;-83
2023/09/22 00:59:34;;;;;;;0.10;0.10;;;18.20;99.90;;;;;;7397443;19;20222;-83
2023/09/22 01:02:01;;;;;;;0.10;0.10;;;18.10;99.90;;;;;;7398970;19;20154;-83
2023/09/22 01:04:27;;;;;;;0.10;0.10;;;18.10;99.90;;;;;;7394753;19;20131;-83
2023/09/22 01:06:55;;;;;;;0.10;0.10;;;18.00;99.90;;;;;;7396953;19;20466;-83
2023/09/22 01:09:21;;;;;;;0.10;0.10;;;18.10;99.90;;;;;;7393179;19;20150;-82
2023/09/22 01:11:47;;;;;;;0.10;0.10;;;18.00;99.90;;;;;;7395067;19;20158;-83
2023/09/22 01:14:13;;;;;;;0.10;0.10;;;17.90;99.90;;;;;;7395367;19;20131;-82
2023/09/22 01:16:39;;;;;;;0.10;0.10;;;17.90;99.90;;;;;;7394132;19;20549;-82
2023/09/22 01:19:16;;;;;;;0.10;0.10;;;18.00;99.90;;;;;;7396222;19;20143;-83
2023/09/22 01:21:46;;;;;;;0.10;0.10;;;18.00;99.90;;;;;;7395433;19;20138;-81
2023/09/22 01:24:13;;;;;;;0.20;0.20;;;18.00;99.90;;;;;;7395945;19;20138;-80
2023/09/22 01:26:39;;;;;;;0.10;0.10;;;18.00;99.90;;;;;;7394247;19;20150;-82
2023/09/22 01:29:08;;;;;;;0.10;0.10;;;18.00;99.90;;;;;;7396524;19;20158;-82
2023/09/22 01:31:36;;;;;;;0.10;0.10;;;18.10;99.90;;;;;;7397179;19;20130;-83
2023/09/22 01:34:02;;;;;;;0.20;0.20;;;18.10;99.90;;;;;;7394357;19;20487;-83
2023/09/22 01:36:29;;;;;;;0.10;0.10;;;18.00;99.90;;;;;;7395461;19;20127;-82
2023/09/22 01:38:57;;;;;;;0.10;0.10;;;17.90;99.90;;;;;;7397250;19;20138;-82
2023/09/22 01:41:23;;;;;;;0.20;0.20;;;18.10;99.90;;;;;;7396114;19;20421;-83
2023/09/22 01:43:49;;;;;;;0.10;0.10;;;18.10;99.90;;;;;;7394621;19;20154;-83
2023/09/22 01:46:15;;;;;;;0.10;0.10;;;18.10;99.90;;;;;;7396130;19;20156;-83
2023/09/22 01:48:41;;;;;;;0.00;0.00;;;18.10;99.90;;;;;;7394290;19;20280;-83
2023/09/22 01:51:07;;;;;;;0.10;0.10;;;18.00;99.90;;;;;;7394185;19;20118;-84
2023/09/22 01:53:33;;;;;;;0.10;0.10;;;17.90;99.90;;;;;;7392917;19;20439;-84
2023/09/22 01:55:58;;;;;;;0.10;0.10;;;18.10;99.90;;;;;;7394982;19;20630;-82
2023/09/22 01:58:24;;;;;;;0.10;0.10;;;18.00;99.90;;;;;;7392517;19;20172;-82
2023/09/22 02:00:51;;;;;;;0.10;0.10;;;17.90;99.90;;;;;;7394651;19;20591;-83
2023/09/22 02:03:17;;;;;;;0.10;0.10;;;17.80;99.90;;;;;;7396435;19;20131;-82
2023/09/22 02:05:43;;;;;;;0.10;0.10;;;17.80;99.90;;;;;;7394099;19;20157;-82
2023/09/22 02:08:09;;;;;;;0.20;0.20;;;17.80;99.90;;;;;;7394961;19;20173;-83
2023/09/22 02:10:35;;;;;;;0.10;0.10;;;17.80;99.90;;;;;;7396406;19;20142;-83
2023/09/22 02:13:01;;;;;;;0.20;0.20;;;17.90;99.90;;;;;;7397371;19;20211;-83
2023/09/22 02:15:27;;;;;;;0.10;0.10;;;17.90;99.90;;;;;;7394627;19;20472;-83
2023/09/22 02:17:53;;;;;;;0.20;0.20;;;17.90;99.90;;;;;;7394350;19;20146;-84
2023/09/22 02:20:22;;;;;;;0.10;0.10;;;17.90;99.90;;;;;;7395266;19;20608;-83
2023/09/22 02:22:50;;;;;;;0.10;0.10;;;17.90;99.90;;;;;;7393707;19;20139;-83
2023/09/22 02:25:17;;;;;;;0.10;0.10;;;17.90;99.90;;;;;;7393291;19;20141;-83
2023/09/22 02:27:44;;;;;;;0.10;0.10;;;17.90;99.90;;;;;;7392280;19;20147;-84
2023/09/22 02:30:10;;;;;;;0.10;0.10;;;17.90;99.90;;;;;;7393872;19;20146;-84
2023/09/22 02:32:39;;;;;;;0.10;0.10;;;17.90;99.90;;;;;;7392943;19;20151;-84
2023/09/22 02:35:05;;;;;;;0.10;0.10;;;17.70;99.90;;;;;;7394983;19;20265;-84
2023/09/22 02:37:31;;;;;;;0.10;0.10;;;17.70;99.90;;;;;;7393682;19;20154;-84
2023/09/22 02:39:56;;;;;;;0.10;0.10;;;17.60;99.90;;;;;;7393633;19;20198;-85
2023/09/22 02:42:22;;;;;;;0.10;0.10;;;17.60;99.90;;;;;;7393827;19;20756;-84
2023/09/22 02:44:49;;;;;;;0.10;0.10;;;17.60;99.90;;;;;;7391980;19;20184;-85
2023/09/22 02:47:15;;;;;;;0.10;0.10;;;17.60;99.90;;;;;;7395204;19;20198;-84
2023/09/22 02:49:43;;;;;;;0.10;0.10;;;17.50;99.90;;;;;;7392195;19;20555;-84
2023/09/22 02:52:10;;;;;;;0.10;0.10;;;17.40;99.90;;;;;;7393122;19;20139;-84
2023/09/22 02:54:36;;;;;;;0.10;0.10;;;17.40;99.90;;;;;;7393643;19;20484;-83
2023/09/22 02:57:03;;;;;;;0.10;0.10;;;17.50;99.90;;;;;;7393932;19;20142;-84
2023/09/22 02:59:30;;;;;;;0.10;0.10;;;17.70;99.90;;;;;;7394147;19;21017;-84
2023/09/22 03:01:57;;;;;;;0.30;0.30;;;17.70;99.90;;;;;;7394666;19;20206;-84
2023/09/22 03:04:23;;;;;;;0.10;0.10;;;17.80;99.90;;;;;;7393115;19;20158;-84
2023/09/22 03:06:48;;;;;;;0.10;0.10;;;17.90;99.90;;;;;;7394591;19;20253;-84
2023/09/22 03:09:15;;;;;;;0.10;0.10;;;17.90;99.90;;;;;;7393953;19;20169;-85
2023/09/22 03:11:41;;;;;;;0.20;0.20;;;17.90;99.90;;;;;;7393001;19;20165;-83
2023/09/22 03:14:12;;;;;;;0.10;0.10;;;17.90;99.90;;;;;;7393001;19;20187;-84
2023/09/22 03:16:39;;;;;;;0.10;0.10;;;17.90;99.90;;;;;;7393816;19;20138;-84
2023/09/22 03:19:07;;;;;;;0.10;0.10;;;17.90;99.90;;;;;;7393754;19;20478;-84
2023/09/22 03:21:33;;;;;;;0.28;0.28;;;17.90;99.90;;;;;;7391962;19;20139;-85
2023/09/22 03:23:59;;;;;;;0.10;0.10;;;17.90;99.90;;;;;;7394654;19;20162;-85
2023/09/22 03:26:25;;;;;;;0.10;0.10;;;17.90;99.90;;;;;;7394420;19;20143;-85
2023/09/22 03:28:50;;;;;;;0.13;0.13;;;17.90;99.90;;;;;;7393561;19;20485;-84
2023/09/22 03:31:23;;;;;;;0.10;0.10;;;17.80;99.90;;;;;;7393480;19;20185;-83
2023/09/22 03:33:49;;;;;;;0.10;0.10;;;17.60;99.90;;;;;;7394052;19;20631;-84
2023/09/22 03:36:15;;;;;;;0.10;0.10;;;17.50;99.90;;;;;;7393983;19;20139;-85
2023/09/22 03:38:42;;;;;;;0.10;0.10;;;17.30;99.90;;;;;;7391887;19;20526;-84
2023/09/22 03:41:09;;;;;;;0.10;0.10;;;17.40;99.90;;;;;;7392863;19;20139;-85
2023/09/22 03:43:35;;;;;;;0.10;0.10;;;17.60;99.90;;;;;;7393676;19;20161;-86
2023/09/22 03:46:01;;;;;;;0.10;0.10;;;17.70;99.90;;;;;;7390134;19;20812;-85
2023/09/22 03:48:27;;;;;;;0.10;0.10;;;17.70;99.90;;;;;;7391928;19;21147;-84
2023/09/22 03:50:56;;;;;;;0.10;0.10;;;17.80;99.90;;;;;;7392970;19;20145;-84
2023/09/22 03:53:22;;;;;;;0.10;0.10;;;17.80;99.90;;;;;;7393709;19;20138;-84
2023/09/22 03:55:49;;;;;;;0.10;0.10;;;17.80;99.90;;;;;;7392165;19;20187;-84
2023/09/22 03:58:16;;;;;;;0.10;0.10;;;17.80;99.90;;;;;;7393698;19;20150;-84
2023/09/22 04:00:43;;;;;;;0.10;0.10;;;17.80;99.90;;;;;;7393491;19;20135;-84
2023/09/22 04:03:09;;;;;;;0.10;0.10;;;17.50;99.90;;;;;;7392637;19;20135;-83
2023/09/22 04:05:39;;;;;;;0.10;0.10;;;17.60;99.90;;;;;;7390259;19;20170;-84
2023/09/22 04:08:05;;;;;;;0.10;0.10;;;17.60;99.90;;;;;;7393306;19;20150;-83
2023/09/22 04:10:32;;;;;;;0.20;0.20;;;17.80;99.90;;;;;;7390631;19;20544;-83
2023/09/22 04:12:58;;;;;;;0.10;0.10;;;17.80;99.90;;;;;;7392656;19;20138;-84
2023/09/22 04:15:24;;;;;;;0.10;0.10;;;17.50;99.90;;;;;;7390506;19;20165;-83
2023/09/22 04:17:51;;;;;;;0.17;0.17;;;17.40;99.90;;;;;;7392530;19;20147;-84
2023/09/22 04:20:27;;;;;;;0.10;0.10;;;17.70;99.90;;;;;;7390916;19;20143;-84
2023/09/22 04:22:53;;;;;;;0.10;0.10;;;17.80;99.90;;;;;;7394859;19;20153;-83
2023/09/22 04:25:29;;;;;;;0.10;0.10;;;17.80;99.90;;;;;;7396066;19;20135;-84
2023/09/22 04:27:57;;;;;;;0.10;0.10;;;17.80;99.90;;;;;;7398100;19;20225;-85
2023/09/22 04:30:24;;;;;;;0.10;0.10;;;17.80;99.90;;;;;;7398207;19;20131;-84
2023/09/22 04:32:51;;;;;;;0.10;0.10;;;17.90;99.90;;;;;;7397927;19;20135;-85
2023/09/22 04:35:18;;;;;;;0.20;0.20;;;17.80;99.90;;;;;;7400459;19;20150;-86
2023/09/22 04:37:44;;;;;;;0.15;0.15;;;17.70;99.90;;;;;;7398757;19;20159;-86
2023/09/22 04:40:23;;;;;;;0.20;0.20;;;17.60;99.90;;;;;;7398992;19;20480;-86
2023/09/22 04:42:53;;;;;;;0.10;0.10;;;17.70;99.90;;;;;;7400889;19;20584;-85
2023/09/22 04:45:19;;;;;;;0.10;0.10;;;17.70;99.90;;;;;;7399198;19;20607;-86
2023/09/22 04:47:47;;;;;;;0.10;0.10;;;17.80;99.90;;;;;;7399199;19;20135;-85
2023/09/22 04:50:17;;;;;;;0.10;0.10;;;17.70;99.90;;;;;;7400181;19;20176;-85
2023/09/22 04:52:47;;;;;;;0.20;0.20;;;17.70;99.90;;;;;;7396971;19;20139;-84
2023/09/22 04:55:16;;;;;;;0.10;0.10;;;17.70;99.90;;;;;;7398056;19;20174;-85
2023/09/22 04:57:42;;;;;;;0.10;0.10;;;17.80;99.90;;;;;;7397466;19;20234;-85
2023/09/22 05:00:15;;;;;;;0.10;0.10;;;17.60;99.90;;;;;;7396852;19;20167;-84
2023/09/22 05:02:44;;;;;;;0.10;0.10;;;17.60;99.90;;;;;;7395288;19;20155;-85
2023/09/22 05:05:18;;;;;;;0.17;0.17;;;17.40;99.90;;;;;;7396421;19;20151;-85
2023/09/22 05:07:50;;;;;;;0.10;0.10;;;17.60;99.90;;;;;;7399945;19;20172;-85
2023/09/22 05:10:16;;;;;;;0.10;0.10;;;17.40;99.90;;;;;;7397383;19;20504;-86
2023/09/22 05:12:42;;;;;;;0.10;0.10;;;17.50;99.90;;;;;;7396367;19;20147;-84
2023/09/22 05:15:08;;;;;;;0.20;0.20;;;17.60;99.90;;;;;;7395244;19;20165;-86
2023/09/22 05:17:34;;;;;;;0.10;0.10;;;17.60;99.90;;;;;;7396905;19;20138;-85
2023/09/22 05:20:02;;;;;;;0.30;0.30;;;17.60;99.90;;;;;;7396520;19;20130;-86
2023/09/22 05:22:28;;;;;;;0.13;0.13;;;17.60;99.90;;;;;;7395110;19;20508;-84
2023/09/22 05:24:54;;;;;;;0.10;0.10;;;17.60;99.90;;;;;;7395189;19;20161;-84
2023/09/22 05:27:20;;;;;;;0.20;0.20;;;17.60;99.90;;;;;;7397649;19;20547;-85
2023/09/22 05:29:46;;;;;;;0.20;0.20;;;17.30;99.90;;;;;;7395823;19;20154;-84
2023/09/22 05:32:11;;;;;;;0.30;0.30;;;17.30;99.90;;;;;;7396389;19;20150;-82
2023/09/22 05:34:39;;;;;;;0.10;0.10;;;17.50;99.90;;;;;;7391780;19;20149;-91
2023/09/22 05:37:05;;;;;;;0.17;0.17;;;17.60;99.90;;;;;;7398370;19;20149;-91
2023/09/22 05:39:31;;;;;;;0.10;0.10;;;17.60;99.90;;;;;;7400750;19;20169;-91
2023/09/22 05:41:57;;;;;;;0.10;0.10;;;17.40;99.90;;;;;;7398429;19;20181;-91
2023/09/22 05:44:23;;;;;;;0.10;0.10;;;17.50;99.90;;;;;;7397285;19;20134;-89
2023/09/22 05:46:55;;;;;;;0.10;0.10;;;17.60;99.90;;;;;;7396822;19;20142;-92
2023/09/22 05:49:21;;;;;;;0.20;0.20;;;17.60;99.90;;;;;;7396552;19;20154;-88
2023/09/22 05:51:48;;;;;;;0.20;0.20;;;17.60;99.90;;;;;;7395877;19;20134;-89
2023/09/22 05:54:14;;;;;;;0.10;0.10;;;17.60;99.90;;;;;;7393651;19;20142;-89
2023/09/22 05:56:40;;;;;;;0.10;0.10;;;17.70;99.90;;;;;;7397391;19;20151;-88
2023/09/22 05:59:06;;;;;;;0.20;0.20;;;17.60;99.90;;;;;;7396613;19;20547;-88
2023/09/22 06:01:37;;;;;;;0.10;0.10;;;17.30;99.90;;;;;;7397956;19;20530;-88
2023/09/22 06:04:09;;;;;;;0.20;0.20;;;17.00;99.90;;;;;;7396659;19;20902;-87
2023/09/22 06:06:35;;;;;;;0.10;0.10;;;17.20;99.90;;;;;;7398213;19;20131;-88
2023/09/22 06:09:01;;;;;;;0.10;0.10;;;17.40;99.90;;;;;;7395916;19;20131;-89
2023/09/22 06:11:27;;;;;;;0.10;0.10;;;17.60;99.90;;;;;;7394841;19;20587;-86
2023/09/22 06:13:53;;;;;;;0.30;0.30;;;17.60;99.90;;;;;;7397442;19;20147;-87
2023/09/22 06:16:19;;;;;;;0.10;0.10;;;17.70;99.90;;;;;;7393566;19;20147;-88
2023/09/22 06:18:45;;;;;;;0.15;0.15;;;17.70;99.90;;;;;;7394371;19;20139;-90
2023/09/22 06:21:11;;;;;;;0.20;0.20;;;17.60;99.90;;;;;;7393045;19;20154;-88
2023/09/22 06:23:38;;;;;;;0.17;0.17;;;17.80;99.90;;;;;;7394910;19;20214;-86
2023/09/22 06:26:05;;;;;;;0.13;0.13;;;17.80;99.90;;;;;;7388807;19;20214;-88
2023/09/22 06:28:35;;;;;;;0.20;0.20;;;17.80;99.90;;;;;;7397213;19;20591;-87
2023/09/22 06:31:02;;;;;;;0.30;0.30;;;17.60;99.90;;;;;;7393912;19;20483;-89
2023/09/22 06:33:28;;;;;;;0.10;0.10;;;17.60;99.90;;;;;;7394001;19;20142;-89
2023/09/22 06:36:02;;;;;;;0.32;0.32;;;17.70;99.90;;;;;;7393468;19;20149;-87
2023/09/22 06:38:34;;;;;;;0.10;0.10;;;17.50;99.90;;;;;;7395385;19;20145;-89
2023/09/22 06:41:04;;;;;;;0.10;0.10;;;17.60;99.90;;;;;;7393691;19;20571;-87
2023/09/22 06:43:30;;;;;;;0.10;0.10;;;17.50;99.90;;;;;;7391553;19;20145;-86
2023/09/22 06:45:59;;;;;;;0.03;0.03;;;17.60;99.90;;;;;;7389595;19;20214;-88
2023/09/22 06:48:29;;;;;;;1.38;0.17;;;17.70;99.90;;;;;;7397291;19;20134;-87
2023/09/22 06:50:58;;;;;;;0.15;0.15;;;17.80;99.90;;;;;;7392575;19;20155;-88
2023/09/22 06:53:26;;;;;;;0.43;0.43;;;17.60;99.90;;;;;;7392287;19;20147;-87
2023/09/22 06:56:06;;;;;;;0.10;0.10;;;17.50;99.90;;;;;;7391795;19;20134;-87
2023/09/22 06:58:37;;;;;;;0.10;0.10;;;17.70;99.90;;;;;;7393233;19;20222;-87
2023/09/22 07:01:10;;;;;;;0.85;0.47;;;17.60;99.90;;;;;;7391689;19;20172;-88
2023/09/22 07:03:38;;;;;;;0.10;0.10;;;17.70;99.90;;;;;;7390357;19;20138;-86
2023/09/22 07:06:10;;;;;;;0.10;0.10;;;17.90;99.90;;;;;;7389351;19;20178;-86
2023/09/22 07:08:37;;;;;;;0.47;0.32;;;17.90;99.90;;;;;;7390751;19;20131;-86
2023/09/22 07:11:04;;;;;;;0.20;0.20;;;18.00;99.90;;;;;;7391992;19;20161;-88
2023/09/22 07:13:31;;;;;;;0.10;0.10;;;18.10;99.90;;;;;;7389561;19;20135;-87
2023/09/22 07:15:58;;;;;;;0.10;0.10;;;18.10;99.90;;;;;;7391657;19;20293;-88
2023/09/22 07:18:25;;;;;;;0.15;0.15;;;18.10;99.90;;;;;;7390310;19;20603;-83
2023/09/22 07:20:55;;;;;;;1.45;1.00;;;17.90;99.90;;;;;;7390932;19;20139;-85
2023/09/22 07:23:22;;;;;;;0.17;0.17;;;17.80;99.90;;;;;;7395161;19;20187;-85
2023/09/22 07:26:02;;;;;;;0.10;0.10;;;17.60;99.90;;;;;;7385181;19;20543;-85
2023/09/22 07:28:28;;;;;;;0.10;0.10;;;17.40;99.90;;;;;;7387402;19;20743;-84
2023/09/22 07:30:55;;;;;;;0.10;0.10;;;17.30;99.90;;;;;;7387096;19;20210;-82
2023/09/22 07:33:23;;;;;;;0.10;0.10;;;17.60;99.90;;;;;;7389463;19;20151;-82
2023/09/22 07:35:49;;;;;;;0.10;0.10;;;17.70;99.90;;;;;;7389528;19;20147;-84
2023/09/22 07:38:19;;;;;;;0.15;0.15;;;17.80;99.90;;;;;;7386824;19;20596;-84
2023/09/22 07:40:45;;;;;;;0.25;0.25;;;17.90;99.90;;;;;;7391995;19;20194;-84
2023/09/22 07:43:11;;;;;;;0.10;0.10;;;17.90;99.90;;;;;;7389795;19;20146;-85
2023/09/22 07:45:37;;;;;;;0.10;0.10;;;17.80;99.90;;;;;;7383155;19;20149;-84
2023/09/22 07:48:03;;;;;;;0.20;0.20;;;18.00;99.90;;;;;;7388232;19;20793;-85
2023/09/22 07:50:29;;;;;;;0.10;0.10;;;18.10;99.90;;;;;;7385649;19;20158;-85
2023/09/22 07:52:56;;;;;;;0.10;0.10;;;18.10;99.90;;;;;;7387439;19;20135;-84
2023/09/22 07:55:22;;;;;;;0.10;0.10;;;18.10;99.90;;;;;;7387738;19;20135;-83
2023/09/22 07:57:49;;;;;;;0.17;0.17;;;18.00;99.90;;;;;;7388255;19;20152;-83
2023/09/22 08:00:18;;;;;;;0.10;0.10;;;18.00;99.90;;;;;;7392205;19;20142;-85
2023/09/22 08:02:49;;;;;;;0.10;0.10;;;18.00;99.90;;;;;;7393916;19;20255;-84
2023/09/22 08:05:15;;;;;;;0.32;0.10;;;18.10;99.90;;;;;;7395975;19;20169;-84
2023/09/22 08:07:45;;;;;;;0.20;0.20;;;18.00;99.90;;;;;;7398299;19;20599;-86
2023/09/22 08:10:12;;;;;;;0.10;0.10;;;18.00;99.90;;;;;;7394814;19;20227;-83
2023/09/22 08:12:41;;;;;;;0.20;0.20;;;18.10;99.90;;;;;;7393681;19;20135;-84
2023/09/22 08:15:08;;;;;;;0.13;0.13;;;18.10;99.90;;;;;;7402949;19;20131;-81
2023/09/22 08:17:34;;;;;;;0.10;0.10;;;18.00;99.90;;;;;;7400133;19;20139;-81
2023/09/22 08:20:00;;;;;;;0.13;0.13;;;17.90;99.90;;;;;;7397820;19;20599;-84
2023/09/22 08:22:26;;;;;;;0.20;0.20;;;18.00;99.90;;;;;;7393981;19;20181;-81
2023/09/22 08:24:53;;;;;;;0.10;0.10;;;18.10;99.90;;;;;;7394997;19;20145;-84
2023/09/22 08:27:19;;;;;;;0.22;0.22;;;18.10;99.90;;;;;;7395013;19;20155;-85
2023/09/22 08:29:48;;;;;;;0.10;0.10;;;18.00;99.90;;;;;;7393789;19;20499;-86
2023/09/22 08:32:14;;;;;;;0.10;0.10;;;18.10;99.90;;;;;;7399104;19;20566;-83
2023/09/22 08:34:40;;;;;;;0.20;0.20;;;18.40;99.90;;;;;;7393835;19;20131;-83
2023/09/22 08:37:06;;;;;;;0.10;0.10;;;18.60;99.90;;;;;;7393800;19;20146;-82
2023/09/22 08:39:32;;;;;;;0.40;0.40;;;18.60;99.90;;;;;;7392403;19;20212;-84
2023/09/22 08:42:01;;;;;;;0.17;0.17;;;18.50;99.90;;;;;;7394866;19;20150;-85
2023/09/22 08:44:27;;;;;;;0.43;0.43;;;18.60;99.90;;;;;;7394094;19;20455;-83
2023/09/22 08:46:53;;;;;;;0.10;0.10;;;18.50;99.90;;;;;;7394390;19;20161;-82
2023/09/22 08:49:22;;;;;;;0.15;0.15;;;18.60;99.90;;;;;;7395447;19;20238;-84
2023/09/22 08:51:49;;;;;;;0.10;0.10;;;18.60;99.90;;;;;;7395563;19;20130;-83
2023/09/22 08:54:15;;;;;;;0.20;0.20;;;18.50;99.90;;;;;;7395646;19;20908;-83
2023/09/22 08:56:41;;;;;;;0.17;0.17;;;18.60;99.90;;;;;;7395469;19;20157;-84
2023/09/22 08:59:10;;;;;;;0.20;0.20;;;18.70;99.90;;;;;;7394020;19;20257;-85
2023/09/22 09:01:36;;;;;;;0.08;0.08;;;18.80;99.90;;;;;;7395621;19;20148;-85
2023/09/22 09:04:39;;;;;;;0.10;0.10;;;18.60;99.90;;;;;;7392984;19;20146;-84
2023/09/22 09:07:06;;;;;;;0.20;0.20;;;18.70;99.90;;;;;;7392871;19;20134;-84
2023/09/22 09:09:58;;;;;;;0.20;0.20;;;18.60;99.90;;;;;;7392998;19;20205;-84
2023/09/22 09:12:25;;;;;;;0.10;0.10;;;18.60;99.90;;;;;;7403729;19;20133;-84
2023/09/22 09:14:58;;;;;;;0.10;0.10;;;18.60;99.90;;;;;;7394845;19;20158;-84
2023/09/22 09:17:23;;;;;;;0.20;0.20;;;18.80;99.90;;;;;;7396606;19;20146;-84
2023/09/22 09:20:00;;;;;;;0.20;0.20;;;18.70;99.90;;;;;;7394823;19;20131;-85
2023/09/22 09:22:37;;;;;;;0.20;0.20;;;18.80;99.90;;;;;;7394021;19;20150;-83
2023/09/22 09:25:06;;;;;;;0.10;0.10;;;18.70;99.90;;;;;;7392896;19;20134;-84
2023/09/22 09:27:31;;;;;;;0.10;0.10;;;18.60;99.90;;;;;;7392497;19;20157;-84
2023/09/22 09:29:57;;;;;;;0.22;0.20;;;18.70;99.90;;;;;;7393027;19;20130;-85
2023/09/22 09:32:29;;;;;;;0.38;0.38;;;18.80;99.90;;;;;;7393200;19;20153;-86
2023/09/22 09:34:58;;;;;;;0.20;0.20;;;18.70;99.90;;;;;;7393633;19;20130;-84
2023/09/22 09:37:26;;;;;;;0.10;0.10;;;18.70;99.90;;;;;;7393789;19;20143;-85
2023/09/22 09:39:57;;;;;;;0.10;0.10;;;18.70;99.90;;;;;;7393734;19;20135;-85
2023/09/22 09:42:24;;;;;;;0.10;0.10;;;18.80;99.90;;;;;;7392231;19;20142;-84
2023/09/22 09:44:56;;;;;;;0.10;0.10;;;18.70;99.90;;;;;;7391341;19;20154;-87
2023/09/22 09:47:24;;;;;;;0.15;0.15;;;18.60;99.90;;;;;;7394870;19;20126;-85
2023/09/22 09:49:55;;;;;;;0.20;0.20;;;18.60;99.90;;;;;;7402572;19;20141;-83
2023/09/22 09:52:37;;;;;;;0.20;0.20;;;18.80;99.90;;;;;;7396622;19;20151;-84
2023/09/22 09:55:14;;;;;;;0.20;0.20;;;19.00;99.90;;;;;;7399840;19;20251;-85
2023/09/22 09:57:44;;;;;;;0.10;0.10;;;18.90;99.90;;;;;;7393014;19;20160;-84
2023/09/22 10:00:19;;;;;;;0.10;0.10;;;19.00;99.90;;;;;;7393301;19;20145;-84
2023/09/22 10:02:46;;;;;;;0.10;0.10;;;18.90;99.90;;;;;;7393429;19;20146;-83
2023/09/22 10:05:14;;;;;;;0.10;0.10;;;18.90;99.90;;;;;;7392329;19;20520;-84
2023/09/22 10:07:43;;;;;;;0.25;0.25;;;18.80;99.90;;;;;;7394900;19;20171;-85
2023/09/22 10:10:13;;;;;;;0.10;0.10;;;18.80;99.90;;;;;;7398211;19;20214;-84
2023/09/22 10:12:40;;;;;;;0.20;0.20;;;18.90;99.90;;;;;;7397796;19;20614;-82
2023/09/22 10:15:08;;;;;;;0.10;0.10;;;19.00;99.90;;;;;;7400848;19;20335;-84
2023/09/22 10:17:35;;;;;;;0.20;0.20;;;19.00;99.90;;;;;;7394180;19;20162;-83
2023/09/22 10:20:07;;;;;;;0.10;0.10;;;19.30;99.90;;;;;;7389846;19;20165;-84
2023/09/22 10:22:33;;;;;;;0.13;0.10;;;19.50;99.90;;;;;;7392649;19;20169;-85
2023/09/22 10:25:14;;;;;;;0.10;0.10;;;19.50;99.90;;;;;;7389788;19;20142;-85
2023/09/22 10:28:02;;;;;;;0.10;0.10;;;19.50;99.90;;;;;;7392515;19;20142;-85
2023/09/22 10:30:43;;;;;;;0.43;0.30;;;19.50;99.90;;;;;;7392475;19;20147;-86
2023/09/22 10:33:24;;;;;;;0.10;0.10;;;19.40;99.90;;;;;;7392036;19;20134;-84
2023/09/22 10:35:49;;;;;;;0.28;0.28;;;19.40;99.90;;;;;;7390606;19;20139;-84
2023/09/22 10:38:15;;;;;;;0.10;0.10;;;19.50;99.90;;;;;;7392639;19;20153;-85
2023/09/22 10:40:59;;;;;;;0.13;0.13;;;19.80;99.90;;;;;;7396955;19;20282;-84
2023/09/22 10:43:33;;;;;;;0.20;0.13;;;20.00;99.90;;;;;;7389726;19;20126;-83
2023/09/22 10:45:59;;;;;;;0.20;0.20;;;20.20;99.90;;;;;;7390934;19;20579;-83
2023/09/22 10:48:34;;;;;;;0.10;0.10;;;20.30;99.90;;;;;;7393049;19;20135;-83
2023/09/22 10:51:06;;;;;;;0.20;0.20;;;20.40;99.90;;;;;;7393459;19;20144;-82
2023/09/22 10:53:34;;;;;;;0.20;0.20;;;20.50;99.90;;;;;;7393473;19;20206;-83
2023/09/22 10:56:05;;;;;;;0.30;0.20;;;20.60;99.90;;;;;;7392408;19;20457;-85
2023/09/22 10:58:31;;;;;;;0.57;0.40;;;20.30;99.90;;;;;;7394389;19;20134;-84
2023/09/22 11:01:01;;;;;;;0.20;0.20;;;20.40;99.90;;;;;;7394436;19;20149;-84
2023/09/22 11:03:28;;;;;;;0.20;0.20;;;20.50;99.90;;;;;;7392524;19;20138;-83
2023/09/22 11:05:58;;;;;;;0.10;0.10;;;20.40;99.90;;;;;;7391692;19;20288;-84
2023/09/22 11:08:24;;;;;;;0.08;0.08;;;20.40;99.90;;;;;;7391628;19;20217;-84
2023/09/22 11:10:52;;;;;;;0.25;0.25;;;20.50;99.90;;;;;;7393431;19;20147;-82
2023/09/22 11:13:19;;;;;;;0.10;0.10;;;20.60;99.90;;;;;;7394683;19;20260;-84
2023/09/22 11:15:56;;;;;;;0.15;0.15;;;20.60;99.90;;;;;;7394421;19;20134;-84
2023/09/22 11:18:27;;;;;;;0.20;0.20;;;20.40;99.90;;;;;;7391996;19;20153;-83
2023/09/22 11:21:05;;;;;;;0.20;0.20;;;20.30;99.90;;;;;;7392899;19;20130;-84
2023/09/22 11:23:34;;;;;;;0.13;0.13;;;20.10;99.90;;;;;;7397304;19;20142;-84
2023/09/22 11:26:07;;;;;;;0.10;0.10;;;20.20;99.90;;;;;;7390829;19;20462;-83
2023/09/22 11:28:33;;;;;;;0.10;0.10;;;20.10;99.90;;;;;;7392278;19;20148;-83
2023/09/22 11:31:11;;;;;;;0.00;0.00;;;20.10;99.90;;;;;;7391860;19;20134;-83
2023/09/22 11:33:38;;;;;;;0.10;0.10;;;20.10;99.90;;;;;;7392537;19;20608;-82
2023/09/22 11:36:04;;;;;;;0.10;0.10;;;20.30;99.90;;;;;;7392830;19;20612;-85
2023/09/22 11:38:35;;;;;;;0.05;0.05;;;20.30;99.90;;;;;;7394064;19;20190;-85
2023/09/22 11:41:17;;;;;;;0.00;0.00;;;20.30;99.90;;;;;;7393122;19;20161;-83
2023/09/22 11:43:46;;;;;;;0.10;0.10;;;20.30;99.90;;;;;;7390513;19;20130;-87
2023/09/22 11:46:25;;;;;;;0.10;0.10;;;20.20;99.90;;;;;;7389409;19;20142;-89
2023/09/22 11:48:59;;;;;;;0.10;0.10;;;20.50;99.90;;;;;;7395178;19;20611;-86
2023/09/22 11:51:40;;;;;;;0.20;0.20;;;20.70;99.90;;;;;;7392448;19;20138;-86
2023/09/22 11:54:07;;;;;;;0.10;0.10;;;20.60;99.90;;;;;;7393154;19;20131;-87
2023/09/22 11:56:33;;;;;;;0.60;0.40;;;20.50;99.90;;;;;;7393491;19;20172;-88
2023/09/22 11:59:10;;;;;;;0.10;0.10;;;20.40;99.90;;;;;;7393924;19;20158;-88
2023/09/22 12:01:36;;;;;;;0.20;0.20;;;20.50;99.90;;;;;;7395551;19;20135;-87
2023/09/22 12:04:06;;;;;;;0.10;0.10;;;20.70;99.90;;;;;;7392430;19;20150;-89
2023/09/22 12:06:32;;;;;;;0.20;0.20;;;20.70;99.90;;;;;;7392095;19;20143;-91
2023/09/22 12:08:59;;;;;;;0.22;0.22;;;20.60;99.90;;;;;;7397118;19;20165;-88
2023/09/22 12:11:25;;;;;;;0.10;0.10;;;20.80;99.90;;;;;;7396626;19;20131;-88
2023/09/22 12:13:51;;;;;;;0.10;0.10;;;21.00;99.90;;;;;;7390629;19;20135;-88
2023/09/22 12:16:17;;;;;;;0.10;0.10;;;21.00;99.90;;;;;;7386507;19;20172;-88
2023/09/22 12:18:42;;;;;;;0.10;0.10;;;21.10;99.90;;;;;;7390729;19;20166;-86
2023/09/22 12:21:08;;;;;;;0.10;0.10;;;21.00;99.90;;;;;;7390037;19;20218;-87
2023/09/22 12:23:34;;;;;;;0.10;0.10;;;20.80;99.90;;;;;;7391409;19;20172;-87
2023/09/22 12:26:01;;;;;;;0.10;0.10;;;20.90;99.90;;;;;;7390620;19;20138;-87
2023/09/22 12:28:27;;;;;;;0.00;0.00;;;20.60;99.90;;;;;;7390188;19;20265;-85
2023/09/22 12:30:53;;;;;;;0.10;0.10;;;20.50;99.90;;;;;;7389758;19;20237;-87
2023/09/22 12:33:19;;;;;;;0.10;0.10;;;20.70;99.90;;;;;;7392392;19;20143;-86
2023/09/22 12:35:47;;;;;;;0.10;0.10;;;20.80;99.90;;;;;;7389754;19;20500;-86
2023/09/22 12:38:13;;;;;;;0.10;0.10;;;20.60;99.90;;;;;;7388579;19;20151;-88
2023/09/22 12:40:39;;;;;;;0.00;0.00;;;20.70;99.90;;;;;;7391538;19;20259;-89
2023/09/22 12:43:05;;;;;;;0.10;0.10;;;21.00;99.90;;;;;;7391835;19;20482;-89
2023/09/22 12:45:31;;;;;;;0.00;0.00;;;21.20;99.90;;;;;;7393467;19;20131;-89
2023/09/22 12:47:58;;;;;;;0.20;0.20;;;21.20;99.90;;;;;;7397480;19;20138;-88
2023/09/22 12:50:24;;;;;;;0.10;0.10;;;21.30;99.90;;;;;;7397649;19;20135;-90
2023/09/22 12:52:50;;;;;;;0.20;0.20;;;21.30;99.90;;;;;;7396282;19;20135;-90